sensor_id;sensor_type;location;lat;lon;timestamp;pressure;altitude;pressure_sealevel;temperature;humidity
39739;BME280;25422;48.286;8.484;2023-09-30T00:00:43;94955.72;;;13.44;100.00
39739;BME280;25422;48.286;8.484;2023-09-30T00:03:08;94960.16;;;13.35;100.00
39739;BME280;25422;48.286;8.484;2023-09-30T00:05:36;94965.72;;;13.32;100.00
39739;BME280;25422;48.286;8.484;2023-09-30T00:08:02;94975.63;;;13.38;100.00
39739;BME280;25422;48.286;8.484;2023-09-30T00:10:27;94977.25;;;13.39;100.00
39739;BME280;25422;48.286;8.484;2023-09-30T00:12:52;94967.38;;;13.49;100.00
39739;BME280;25422;48.286;8.484;2023-09-30T00:15:18;94973.94;;;13.54;100.00
39739;BME280;25422;48.286;8.484;2023-09-30T00:17:43;94958.16;;;13.54;100.00
39739;BME280;25422;48.286;8.484;2023-09-30T00:20:09;94960.66;;;13.55;100.00
39739;BME280;25422;48.286;8.484;2023-09-30T00:22:35;94962.94;;;13.58;100.00
39739;BME280;25422;48.286;8.484;2023-09-30T00:25:00;94958.44;;;13.67;100.00
39739;BME280;25422;48.286;8.484;2023-09-30T00:27:26;94957.94;;;13.80;100.00
39739;BME280;25422;48.286;8.484;2023-09-30T00:29:51;94952.28;;;13.91;100.00
39739;BME280;25422;48.286;8.484;2023-09-30T00:32:17;94957.19;;;14.03;100.00
39739;BME280;25422;48.286;8.484;2023-09-30T00:34:42;94954.84;;;14.08;100.00
39739;BME280;25422;48.286;8.484;2023-09-30T00:37:08;94944.50;;;14.06;100.00
39739;BME280;25422;48.286;8.484;2023-09-30T00:39:33;94955.88;;;13.98;100.00
39739;BME280;25422;48.286;8.484;2023-09-30T00:41:59;94956.88;;;13.97;100.00
39739;BME280;25422;48.286;8.484;2023-09-30T00:44:26;94963.13;;;13.96;100.00
39739;BME280;25422;48.286;8.484;2023-09-30T00:46:51;94947.50;;;13.95;100.00
39739;BME280;25422;48.286;8.484;2023-09-30T00:49:17;94960.00;;;13.93;100.00
39739;BME280;25422;48.286;8.484;2023-09-30T00:51:45;94954.09;;;13.91;100.00
39739;BME280;25422;48.286;8.484;2023-09-30T00:54:11;94944.63;;;13.73;100.00
39739;BME280;25422;48.286;8.484;2023-09-30T00:56:42;94950.41;;;13.60;100.00
39739;BME280;25422;48.286;8.484;2023-09-30T00:59:08;94958.03;;;13.47;100.00
39739;BME280;25422;48.286;8.484;2023-09-30T01:01:34;94948.69;;;13.44;100.00
39739;BME280;25422;48.286;8.484;2023-09-30T01:04:00;94947.84;;;13.36;100.00
39739;BME280;25422;48.286;8.484;2023-09-30T01:06:26;94954.75;;;13.28;100.00
39739;BME280;25422;48.286;8.484;2023-09-30T01:08:52;94952.75;;;13.30;100.00
39739;BME280;25422;48.286;8.484;2023-09-30T01:11:18;94952.28;;;13.27;100.00
39739;BME280;25422;48.286;8.484;2023-09-30T01:13:44;94954.75;;;13.28;100.00
39739;BME280;25422;48.286;8.484;2023-09-30T01:16:10;94960.16;;;13.35;100.00
39739;BME280;25422;48.286;8.484;2023-09-30T01:18:37;94956.69;;;13.43;100.00
39739;BME280;25422;48.286;8.484;2023-09-30T01:21:04;94960.31;;;13.50;100.00
39739;BME280;25422;48.286;8.484;2023-09-30T01:23:33;94958.00;;;13.55;100.00
39739;BME280;25422;48.286;8.484;2023-09-30T01:26:02;94961.09;;;13.59;100.00
39739;BME280;25422;48.286;8.484;2023-09-30T01:28:29;94962.09;;;13.49;100.00
39739;BME280;25422;48.286;8.484;2023-09-30T01:30:54;94951.16;;;13.38;100.00
39739;BME280;25422;48.286;8.484;2023-09-30T01:33:19;94951.63;;;13.25;100.00
39739;BME280;25422;48.286;8.484;2023-09-30T01:35:45;94949.69;;;13.19;100.00
39739;BME280;25422;48.286;8.484;2023-09-30T01:38:10;94950.00;;;13.15;100.00
39739;BME280;25422;48.286;8.484;2023-09-30T01:40:36;94943.94;;;12.98;100.00
39739;BME280;25422;48.286;8.484;2023-09-30T01:43:03;94948.38;;;12.90;100.00
39739;BME280;25422;48.286;8.484;2023-09-30T01:45:28;94951.16;;;12.80;100.00
39739;BME280;25422;48.286;8.484;2023-09-30T01:47:54;94947.72;;;12.88;100.00
39739;BME280;25422;48.286;8.484;2023-09-30T01:50:19;94948.06;;;13.01;100.00
39739;BME280;25422;48.286;8.484;2023-09-30T01:52:45;94941.16;;;13.00;100.00
39739;BME280;25422;48.286;8.484;2023-09-30T01:55:10;94936.25;;;12.97;100.00
39739;BME280;25422;48.286;8.484;2023-09-30T01:57:36;94937.84;;;12.98;100.00
39739;BME280;25422;48.286;8.484;2023-09-30T02:00:02;94935.09;;;12.99;100.00
39739;BME280;25422;48.286;8.484;2023-09-30T02:02:38;94938.00;;;13.05;100.00
39739;BME280;25422;48.286;8.484;2023-09-30T02:05:04;94949.66;;;13.02;100.00
39739;BME280;25422;48.286;8.484;2023-09-30T02:07:29;94947.38;;;12.99;100.00
39739;BME280;25422;48.286;8.484;2023-09-30T02:09:55;94962.50;;;12.97;100.00
39739;BME280;25422;48.286;8.484;2023-09-30T02:12:21;94948.19;;;12.91;100.00
39739;BME280;25422;48.286;8.484;2023-09-30T02:14:46;94958.88;;;12.90;100.00
39739;BME280;25422;48.286;8.484;2023-09-30T02:17:12;94956.91;;;12.92;100.00
39739;BME280;25422;48.286;8.484;2023-09-30T02:19:39;94951.66;;;12.92;100.00
39739;BME280;25422;48.286;8.484;2023-09-30T02:22:06;94956.06;;;12.91;100.00
39739;BME280;25422;48.286;8.484;2023-09-30T02:24:31;94956.91;;;12.92;100.00
39739;BME280;25422;48.286;8.484;2023-09-30T02:26:57;94953.44;;;12.91;100.00
39739;BME280;25422;48.286;8.484;2023-09-30T02:29:23;94952.16;;;12.95;100.00
39739;BME280;25422;48.286;8.484;2023-09-30T02:31:48;94951.81;;;12.98;100.00
39739;BME280;25422;48.286;8.484;2023-09-30T02:34:14;94951.66;;;13.00;100.00
39739;BME280;25422;48.286;8.484;2023-09-30T02:36:40;94950.00;;;12.99;100.00
39739;BME280;25422;48.286;8.484;2023-09-30T02:39:05;94949.38;;;13.05;100.00
39739;BME280;25422;48.286;8.484;2023-09-30T02:41:31;94952.81;;;13.06;100.00
39739;BME280;25422;48.286;8.484;2023-09-30T02:43:56;94952.00;;;13.05;100.00
39739;BME280;25422;48.286;8.484;2023-09-30T02:46:22;94948.69;;;13.03;100.00
39739;BME280;25422;48.286;8.484;2023-09-30T02:48:47;94955.09;;;12.92;100.00
39739;BME280;25422;48.286;8.484;2023-09-30T02:51:13;94959.38;;;12.77;100.00
39739;BME280;25422;48.286;8.484;2023-09-30T02:53:38;94953.16;;;12.78;100.00
39739;BME280;25422;48.286;8.484;2023-09-30T02:56:04;94954.78;;;12.79;100.00
39739;BME280;25422;48.286;8.484;2023-09-30T02:58:30;94954.44;;;12.57;100.00
39739;BME280;25422;48.286;8.484;2023-09-30T03:00:55;94957.72;;;12.51;100.00
39739;BME280;25422;48.286;8.484;2023-09-30T03:03:21;94961.31;;;12.42;100.00
39739;BME280;25422;48.286;8.484;2023-09-30T03:05:47;94964.09;;;12.40;100.00
39739;BME280;25422;48.286;8.484;2023-09-30T03:08:15;94966.53;;;12.34;100.00
39739;BME280;25422;48.286;8.484;2023-09-30T03:10:41;94970.63;;;12.28;100.00
39739;BME280;25422;48.286;8.484;2023-09-30T03:13:07;94971.94;;;12.24;100.00
39739;BME280;25422;48.286;8.484;2023-09-30T03:15:37;94973.88;;;12.22;100.00
39739;BME280;25422;48.286;8.484;2023-09-30T03:18:04;94968.97;;;12.19;100.00
39739;BME280;25422;48.286;8.484;2023-09-30T03:20:30;94965.66;;;12.17;100.00
39739;BME280;25422;48.286;8.484;2023-09-30T03:22:56;94967.97;;;12.11;100.00
39739;BME280;25422;48.286;8.484;2023-09-30T03:25:22;94976.63;;;12.04;100.00
39739;BME280;25422;48.286;8.484;2023-09-30T03:27:48;94974.81;;;12.04;100.00
39739;BME280;25422;48.286;8.484;2023-09-30T03:30:17;94977.75;;;12.01;100.00
39739;BME280;25422;48.286;8.484;2023-09-30T03:32:43;94977.09;;;11.99;100.00
39739;BME280;25422;48.286;8.484;2023-09-30T03:35:10;94976.13;;;12.00;100.00
39739;BME280;25422;48.286;8.484;2023-09-30T03:37:47;94967.94;;;12.03;100.00
39739;BME280;25422;48.286;8.484;2023-09-30T03:40:13;94954.69;;;12.05;100.00
39739;BME280;25422;48.286;8.484;2023-09-30T03:42:40;94952.69;;;12.07;100.00
39739;BME280;25422;48.286;8.484;2023-09-30T03:45:08;94947.44;;;12.07;100.00
39739;BME280;25422;48.286;8.484;2023-09-30T03:47:35;94938.53;;;11.91;100.00
39739;BME280;25422;48.286;8.484;2023-09-30T03:50:01;94942.59;;;11.77;100.00
39739;BME280;25422;48.286;8.484;2023-09-30T03:52:29;94949.88;;;11.57;100.00
39739;BME280;25422;48.286;8.484;2023-09-30T03:54:54;94941.28;;;11.47;100.00
39739;BME280;25422;48.286;8.484;2023-09-30T03:57:20;94939.00;;;11.44;100.00
39739;BME280;25422;48.286;8.484;2023-09-30T03:59:45;94941.25;;;11.39;100.00
39739;BME280;25422;48.286;8.484;2023-09-30T04:02:14;94942.69;;;11.33;100.00
39739;BME280;25422;48.286;8.484;2023-09-30T04:04:40;94927.75;;;11.25;100.00
39739;BME280;25422;48.286;8.484;2023-09-30T04:07:05;94930.53;;;11.24;100.00
39739;BME280;25422;48.286;8.484;2023-09-30T04:09:35;94935.56;;;11.17;100.00
39739;BME280;25422;48.286;8.484;2023-09-30T04:12:01;94954.31;;;11.04;100.00
39739;BME280;25422;48.286;8.484;2023-09-30T04:14:26;94963.44;;;11.00;100.00
39739;BME280;25422;48.286;8.484;2023-09-30T04:16:52;94952.75;;;10.93;100.00
39739;BME280;25422;48.286;8.484;2023-09-30T04:19:19;94947.81;;;10.90;100.00
39739;BME280;25422;48.286;8.484;2023-09-30T04:21:45;94954.63;;;10.83;100.00
39739;BME280;25422;48.286;8.484;2023-09-30T04:24:10;94957.03;;;10.76;100.00
39739;BME280;25422;48.286;8.484;2023-09-30T04:26:35;94957.25;;;10.83;100.00
39739;BME280;25422;48.286;8.484;2023-09-30T04:29:02;94958.53;;;10.79;100.00
39739;BME280;25422;48.286;8.484;2023-09-30T04:31:35;94958.00;;;10.75;100.00
39739;BME280;25422;48.286;8.484;2023-09-30T04:34:01;94958.47;;;10.71;100.00
39739;BME280;25422;48.286;8.484;2023-09-30T04:36:27;94960.28;;;10.70;100.00
39739;BME280;25422;48.286;8.484;2023-09-30T04:38:52;94981.50;;;10.67;100.00
39739;BME280;25422;48.286;8.484;2023-09-30T04:41:18;94978.00;;;10.58;100.00
39739;BME280;25422;48.286;8.484;2023-09-30T04:43:44;94978.56;;;10.52;100.00
39739;BME280;25422;48.286;8.484;2023-09-30T04:46:09;94976.72;;;10.44;100.00
39739;BME280;25422;48.286;8.484;2023-09-30T04:48:37;94985.69;;;10.42;100.00
39739;BME280;25422;48.286;8.484;2023-09-30T04:51:06;94981.84;;;10.36;100.00
39739;BME280;25422;48.286;8.484;2023-09-30T04:53:31;94977.19;;;10.30;100.00
39739;BME280;25422;48.286;8.484;2023-09-30T04:55:59;94979.72;;;10.22;100.00
39739;BME280;25422;48.286;8.484;2023-09-30T04:58:24;94972.03;;;10.20;100.00
39739;BME280;25422;48.286;8.484;2023-09-30T05:00:50;94966.50;;;10.05;100.00
39739;BME280;25422;48.286;8.484;2023-09-30T05:03:16;94972.34;;;9.89;100.00
39739;BME280;25422;48.286;8.484;2023-09-30T05:05:41;94975.16;;;9.78;100.00
39739;BME280;25422;48.286;8.484;2023-09-30T05:08:07;94988.53;;;9.65;100.00
39739;BME280;25422;48.286;8.484;2023-09-30T05:10:32;94990.09;;;9.58;100.00
39739;BME280;25422;48.286;8.484;2023-09-30T05:12:58;94996.69;;;9.62;100.00
39739;BME280;25422;48.286;8.484;2023-09-30T05:15:24;94985.78;;;9.67;100.00
39739;BME280;25422;48.286;8.484;2023-09-30T05:17:50;94989.75;;;9.71;100.00
39739;BME280;25422;48.286;8.484;2023-09-30T05:20:16;94993.56;;;9.76;100.00
39739;BME280;25422;48.286;8.484;2023-09-30T05:22:45;95002.22;;;9.87;100.00
39739;BME280;25422;48.286;8.484;2023-09-30T05:25:14;95010.28;;;9.93;100.00
39739;BME280;25422;48.286;8.484;2023-09-30T05:27:43;95004.06;;;10.04;100.00
39739;BME280;25422;48.286;8.484;2023-09-30T05:30:09;94992.72;;;10.13;100.00
39739;BME280;25422;48.286;8.484;2023-09-30T05:32:37;94978.66;;;10.15;100.00
39739;BME280;25422;48.286;8.484;2023-09-30T05:35:07;94986.94;;;10.10;100.00
39739;BME280;25422;48.286;8.484;2023-09-30T05:37:44;94982.84;;;10.07;100.00
39739;BME280;25422;48.286;8.484;2023-09-30T05:40:12;94992.34;;;10.08;100.00
39739;BME280;25422;48.286;8.484;2023-09-30T05:42:57;94987.00;;;10.00;100.00
39739;BME280;25422;48.286;8.484;2023-09-30T05:45:23;94987.31;;;9.97;100.00
39739;BME280;25422;48.286;8.484;2023-09-30T05:47:49;94987.19;;;9.89;100.00
39739;BME280;25422;48.286;8.484;2023-09-30T05:50:17;94982.84;;;9.79;100.00
39739;BME280;25422;48.286;8.484;2023-09-30T05:52:43;94987.44;;;9.68;100.00
39739;BME280;25422;48.286;8.484;2023-09-30T05:55:10;94983.03;;;9.68;100.00
39739;BME280;25422;48.286;8.484;2023-09-30T05:57:36;94991.41;;;9.72;100.00
39739;BME280;25422;48.286;8.484;2023-09-30T06:00:02;94990.59;;;9.71;100.00
39739;BME280;25422;48.286;8.484;2023-09-30T06:02:48;94993.16;;;9.81;100.00
39739;BME280;25422;48.286;8.484;2023-09-30T06:05:14;94995.47;;;9.84;100.00
39739;BME280;25422;48.286;8.484;2023-09-30T06:07:45;94984.97;;;9.94;100.00
39739;BME280;25422;48.286;8.484;2023-09-30T06:10:11;94996.88;;;10.06;100.00
39739;BME280;25422;48.286;8.484;2023-09-30T06:12:38;95006.75;;;10.12;100.00
39739;BME280;25422;48.286;8.484;2023-09-30T06:15:03;95003.66;;;10.27;100.00
39739;BME280;25422;48.286;8.484;2023-09-30T06:17:29;95012.44;;;10.36;100.00
39739;BME280;25422;48.286;8.484;2023-09-30T06:19:54;95015.75;;;10.28;100.00
39739;BME280;25422;48.286;8.484;2023-09-30T06:22:20;95019.41;;;10.45;100.00
39739;BME280;25422;48.286;8.484;2023-09-30T06:24:46;95015.81;;;10.64;100.00
39739;BME280;25422;48.286;8.484;2023-09-30T06:27:13;95023.28;;;10.77;100.00
39739;BME280;25422;48.286;8.484;2023-09-30T06:29:38;95013.09;;;10.92;100.00
39739;BME280;25422;48.286;8.484;2023-09-30T06:32:05;95018.50;;;11.08;100.00
39739;BME280;25422;48.286;8.484;2023-09-30T06:34:30;95025.19;;;11.29;100.00
39739;BME280;25422;48.286;8.484;2023-09-30T06:36:55;95020.38;;;11.42;100.00
39739;BME280;25422;48.286;8.484;2023-09-30T06:39:21;95023.75;;;11.61;100.00
39739;BME280;25422;48.286;8.484;2023-09-30T06:41:47;95032.00;;;11.74;100.00
39739;BME280;25422;48.286;8.484;2023-09-30T06:44:12;95026.53;;;11.86;100.00
39739;BME280;25422;48.286;8.484;2023-09-30T06:46:38;95038.69;;;11.95;100.00
39739;BME280;25422;48.286;8.484;2023-09-30T06:49:04;95038.16;;;12.18;100.00
39739;BME280;25422;48.286;8.484;2023-09-30T06:51:30;95049.69;;;12.33;100.00
39739;BME280;25422;48.286;8.484;2023-09-30T06:53:56;95060.50;;;12.38;100.00
39739;BME280;25422;48.286;8.484;2023-09-30T06:56:21;95065.00;;;12.54;100.00
39739;BME280;25422;48.286;8.484;2023-09-30T06:58:47;95062.03;;;12.57;100.00
39739;BME280;25422;48.286;8.484;2023-09-30T07:01:15;95070.63;;;12.76;100.00
39739;BME280;25422;48.286;8.484;2023-09-30T07:03:42;95068.19;;;12.74;100.00
39739;BME280;25422;48.286;8.484;2023-09-30T07:06:08;95062.94;;;12.74;100.00
39739;BME280;25422;48.286;8.484;2023-09-30T07:08:33;95069.53;;;13.03;100.00
39739;BME280;25422;48.286;8.484;2023-09-30T07:10:58;95060.06;;;13.43;100.00
39739;BME280;25422;48.286;8.484;2023-09-30T07:13:25;95057.91;;;13.63;100.00
39739;BME280;25422;48.286;8.484;2023-09-30T07:15:50;95055.19;;;13.96;100.00
39739;BME280;25422;48.286;8.484;2023-09-30T07:18:16;95057.06;;;14.27;100.00
39739;BME280;25422;48.286;8.484;2023-09-30T07:20:42;95057.75;;;14.53;100.00
39739;BME280;25422;48.286;8.484;2023-09-30T07:23:07;95055.59;;;14.64;100.00
39739;BME280;25422;48.286;8.484;2023-09-30T07:25:34;95054.28;;;14.92;100.00
39739;BME280;25422;48.286;8.484;2023-09-30T07:28:00;95053.25;;;15.01;100.00
39739;BME280;25422;48.286;8.484;2023-09-30T07:30:26;95056.72;;;15.25;100.00
39739;BME280;25422;48.286;8.484;2023-09-30T07:32:51;95063.53;;;15.34;100.00
39739;BME280;25422;48.286;8.484;2023-09-30T07:35:17;95058.19;;;15.42;100.00
39739;BME280;25422;48.286;8.484;2023-09-30T07:37:43;95067.56;;;15.45;100.00
39739;BME280;25422;48.286;8.484;2023-09-30T07:40:09;95072.16;;;15.89;100.00
39739;BME280;25422;48.286;8.484;2023-09-30T07:42:35;95074.50;;;15.84;100.00
39739;BME280;25422;48.286;8.484;2023-09-30T07:45:02;95080.72;;;16.21;100.00
39739;BME280;25422;48.286;8.484;2023-09-30T07:47:29;95088.34;;;16.46;100.00
39739;BME280;25422;48.286;8.484;2023-09-30T07:49:55;95097.59;;;17.01;100.00
39739;BME280;25422;48.286;8.484;2023-09-30T07:52:21;95071.53;;;17.70;100.00
39739;BME280;25422;48.286;8.484;2023-09-30T07:54:46;95075.84;;;17.71;100.00
39739;BME280;25422;48.286;8.484;2023-09-30T07:57:12;95077.91;;;17.97;100.00
39739;BME280;25422;48.286;8.484;2023-09-30T07:59:37;95080.50;;;18.26;100.00
39739;BME280;25422;48.286;8.484;2023-09-30T08:02:03;95075.38;;;17.67;100.00
39739;BME280;25422;48.286;8.484;2023-09-30T08:04:30;95078.28;;;18.29;100.00
39739;BME280;25422;48.286;8.484;2023-09-30T08:06:56;95078.66;;;19.16;100.00
39739;BME280;25422;48.286;8.484;2023-09-30T08:09:21;95077.47;;;19.46;100.00
39739;BME280;25422;48.286;8.484;2023-09-30T08:11:50;95075.41;;;18.66;100.00
39739;BME280;25422;48.286;8.484;2023-09-30T08:14:16;95070.16;;;18.31;100.00
39739;BME280;25422;48.286;8.484;2023-09-30T08:16:41;95068.97;;;18.40;100.00
39739;BME280;25422;48.286;8.484;2023-09-30T08:19:08;95059.50;;;18.24;100.00
39739;BME280;25422;48.286;8.484;2023-09-30T08:21:34;95059.13;;;17.42;100.00
39739;BME280;25422;48.286;8.484;2023-09-30T08:23:59;95064.06;;;17.74;100.00
39739;BME280;25422;48.286;8.484;2023-09-30T08:26:25;95057.66;;;19.35;100.00
39739;BME280;25422;48.286;8.484;2023-09-30T08:28:50;95069.94;;;19.43;100.00
39739;BME280;25422;48.286;8.484;2023-09-30T08:31:16;95076.25;;;20.22;100.00
39739;BME280;25422;48.286;8.484;2023-09-30T08:33:41;95084.13;;;20.55;100.00
39739;BME280;25422;48.286;8.484;2023-09-30T08:36:09;95076.94;;;20.63;96.60
39739;BME280;25422;48.286;8.484;2023-09-30T08:38:39;95085.53;;;21.17;95.83
39739;BME280;25422;48.286;8.484;2023-09-30T08:41:06;95075.78;;;21.36;89.31
39739;BME280;25422;48.286;8.484;2023-09-30T08:43:37;95077.38;;;22.01;86.74
39739;BME280;25422;48.286;8.484;2023-09-30T08:46:04;95075.91;;;22.05;85.66
39739;BME280;25422;48.286;8.484;2023-09-30T08:48:31;95075.50;;;22.27;81.74
39739;BME280;25422;48.286;8.484;2023-09-30T08:50:59;95087.97;;;22.08;81.80
39739;BME280;25422;48.286;8.484;2023-09-30T08:53:25;95085.75;;;22.23;79.33
39739;BME280;25422;48.286;8.484;2023-09-30T08:55:55;95077.53;;;22.50;76.63
39739;BME280;25422;48.286;8.484;2023-09-30T08:58:27;95083.97;;;22.61;72.29
39739;BME280;25422;48.286;8.484;2023-09-30T09:00:53;95083.22;;;22.72;70.35
39739;BME280;25422;48.286;8.484;2023-09-30T09:03:20;95081.28;;;22.23;75.28
39739;BME280;25422;48.286;8.484;2023-09-30T09:05:55;95091.53;;;22.45;76.01
39739;BME280;25422;48.286;8.484;2023-09-30T09:08:22;95099.97;;;22.42;75.68
39739;BME280;25422;48.286;8.484;2023-09-30T09:10:57;95088.19;;;22.87;67.89
39739;BME280;25422;48.286;8.484;2023-09-30T09:13:26;95090.84;;;22.87;66.61
39739;BME280;25422;48.286;8.484;2023-09-30T09:16:08;95096.97;;;23.55;61.70
39739;BME280;25422;48.286;8.484;2023-09-30T09:18:34;95092.75;;;24.13;56.84
39739;BME280;25422;48.286;8.484;2023-09-30T09:21:16;95080.66;;;22.47;62.24
39739;BME280;25422;48.286;8.484;2023-09-30T09:23:43;95078.84;;;22.40;67.29
39739;BME280;25422;48.286;8.484;2023-09-30T09:26:13;95081.91;;;22.63;62.47
39739;BME280;25422;48.286;8.484;2023-09-30T09:28:48;95080.53;;;23.09;61.75
39739;BME280;25422;48.286;8.484;2023-09-30T09:31:27;95073.19;;;23.04;64.22
39739;BME280;25422;48.286;8.484;2023-09-30T09:33:53;95068.97;;;23.46;62.59
39739;BME280;25422;48.286;8.484;2023-09-30T09:36:19;95068.69;;;23.89;58.93
39739;BME280;25422;48.286;8.484;2023-09-30T09:38:53;95061.66;;;22.18;65.22
39739;BME280;25422;48.286;8.484;2023-09-30T09:41:20;95063.44;;;22.80;64.72
39739;BME280;25422;48.286;8.484;2023-09-30T09:43:49;95061.53;;;22.50;62.91
39739;BME280;25422;48.286;8.484;2023-09-30T09:46:17;95057.50;;;21.46;67.42
39739;BME280;25422;48.286;8.484;2023-09-30T09:48:45;95057.41;;;22.10;63.99
39739;BME280;25422;48.286;8.484;2023-09-30T09:51:11;95047.44;;;22.61;61.37
39739;BME280;25422;48.286;8.484;2023-09-30T09:53:39;95035.59;;;23.36;58.25
39739;BME280;25422;48.286;8.484;2023-09-30T09:56:08;95034.38;;;22.90;59.72
39739;BME280;25422;48.286;8.484;2023-09-30T09:58:36;95044.59;;;22.19;60.71
39739;BME280;25422;48.286;8.484;2023-09-30T10:01:05;95036.91;;;21.03;65.11
39739;BME280;25422;48.286;8.484;2023-09-30T10:03:31;95039.31;;;19.94;70.51
39739;BME280;25422;48.286;8.484;2023-09-30T10:06:01;95039.00;;;20.42;65.73
39739;BME280;25422;48.286;8.484;2023-09-30T10:08:37;95036.03;;;19.98;68.17
39739;BME280;25422;48.286;8.484;2023-09-30T10:11:04;95039.50;;;19.92;68.52
39739;BME280;25422;48.286;8.484;2023-09-30T10:13:56;95040.16;;;19.87;65.38
39739;BME280;25422;48.286;8.484;2023-09-30T10:19:09;95046.25;;;20.08;65.39
39739;BME280;25422;48.286;8.484;2023-09-30T10:21:35;95038.34;;;21.05;61.02
39739;BME280;25422;48.286;8.484;2023-09-30T10:35:17;95050.63;;;21.89;56.17
39739;BME280;25422;48.286;8.484;2023-09-30T10:37:43;95052.69;;;20.98;59.72
39739;BME280;25422;48.286;8.484;2023-09-30T10:40:10;95041.91;;;21.50;57.87
39739;BME280;25422;48.286;8.484;2023-09-30T10:42:51;95047.47;;;19.79;63.71
39739;BME280;25422;48.286;8.484;2023-09-30T10:51:13;95039.31;;;21.11;55.03
39739;BME280;25422;48.286;8.484;2023-09-30T10:53:47;95035.31;;;20.43;56.09
39739;BME280;25422;48.286;8.484;2023-09-30T10:56:14;95036.03;;;21.41;55.05
39739;BME280;25422;48.286;8.484;2023-09-30T10:58:48;95034.50;;;20.95;56.54
39739;BME280;25422;48.286;8.484;2023-09-30T11:01:16;95034.53;;;22.02;53.36
39739;BME280;25422;48.286;8.484;2023-09-30T11:03:43;95039.13;;;21.95;53.90
39739;BME280;25422;48.286;8.484;2023-09-30T11:06:16;95037.94;;;21.34;54.82
39739;BME280;25422;48.286;8.484;2023-09-30T11:08:56;95030.91;;;21.97;53.82
39739;BME280;25422;48.286;8.484;2023-09-30T11:11:40;95025.13;;;23.04;50.11
39739;BME280;25422;48.286;8.484;2023-09-30T11:14:18;95022.41;;;23.53;47.28
39739;BME280;25422;48.286;8.484;2023-09-30T11:16:44;95021.44;;;22.75;48.39
39739;BME280;25422;48.286;8.484;2023-09-30T11:19:11;95025.44;;;23.15;47.60
39739;BME280;25422;48.286;8.484;2023-09-30T11:21:37;95014.34;;;22.69;50.64
39739;BME280;25422;48.286;8.484;2023-09-30T11:24:03;95039.28;;;20.79;54.63
39739;BME280;25422;48.286;8.484;2023-09-30T11:26:33;95031.00;;;21.33;54.82
39739;BME280;25422;48.286;8.484;2023-09-30T11:29:28;95018.44;;;21.72;53.71
39739;BME280;25422;48.286;8.484;2023-09-30T11:31:53;95020.66;;;21.18;54.69
39739;BME280;25422;48.286;8.484;2023-09-30T11:34:19;95014.53;;;20.79;56.41
39739;BME280;25422;48.286;8.484;2023-09-30T11:36:53;95008.31;;;20.46;58.69
39739;BME280;25422;48.286;8.484;2023-09-30T11:41:49;94992.28;;;20.66;56.92
39739;BME280;25422;48.286;8.484;2023-09-30T11:44:14;94990.31;;;20.48;55.77
39739;BME280;25422;48.286;8.484;2023-09-30T11:46:50;94994.09;;;20.66;54.84
39739;BME280;25422;48.286;8.484;2023-09-30T11:49:27;94988.72;;;21.18;53.07
39739;BME280;25422;48.286;8.484;2023-09-30T11:51:54;94987.03;;;20.53;56.15
39739;BME280;25422;48.286;8.484;2023-09-30T11:54:19;94994.53;;;20.63;55.91
39739;BME280;25422;48.286;8.484;2023-09-30T11:56:47;94981.91;;;22.53;49.30
39739;BME280;25422;48.286;8.484;2023-09-30T11:59:13;94985.56;;;23.20;48.02
39739;BME280;25422;48.286;8.484;2023-09-30T12:01:38;94985.94;;;23.05;46.21
39739;BME280;25422;48.286;8.484;2023-09-30T12:04:04;94989.84;;;22.60;47.61
39739;BME280;25422;48.286;8.484;2023-09-30T12:06:30;94999.53;;;24.40;44.96
39739;BME280;25422;48.286;8.484;2023-09-30T12:08:55;94986.22;;;24.46;44.65
39739;BME280;25422;48.286;8.484;2023-09-30T12:11:21;94985.06;;;24.53;43.14
39739;BME280;25422;48.286;8.484;2023-09-30T12:13:49;94986.63;;;23.31;45.93
39739;BME280;25422;48.286;8.484;2023-09-30T12:16:18;94983.03;;;23.72;43.80
39739;BME280;25422;48.286;8.484;2023-09-30T12:18:45;94980.25;;;23.44;45.27
39739;BME280;25422;48.286;8.484;2023-09-30T12:21:11;94987.75;;;23.89;44.51
39739;BME280;25422;48.286;8.484;2023-09-30T12:23:39;94994.38;;;24.51;42.30
39739;BME280;25422;48.286;8.484;2023-09-30T12:26:04;94986.09;;;25.22;39.85
39739;BME280;25422;48.286;8.484;2023-09-30T12:28:31;94987.19;;;24.39;40.63
39739;BME280;25422;48.286;8.484;2023-09-30T12:30:58;94982.47;;;24.06;45.35
39739;BME280;25422;48.286;8.484;2023-09-30T12:33:24;94984.44;;;23.87;45.26
39739;BME280;25422;48.286;8.484;2023-09-30T12:35:49;94977.69;;;24.20;44.76
39739;BME280;25422;48.286;8.484;2023-09-30T12:38:15;94971.16;;;25.26;41.57
39739;BME280;25422;48.286;8.484;2023-09-30T12:40:41;94982.72;;;24.16;45.46
39739;BME280;25422;48.286;8.484;2023-09-30T12:43:09;94984.28;;;23.34;47.00
39739;BME280;25422;48.286;8.484;2023-09-30T12:45:35;94978.06;;;21.94;47.95
39739;BME280;25422;48.286;8.484;2023-09-30T12:48:04;94983.06;;;21.83;50.59
39739;BME280;25422;48.286;8.484;2023-09-30T12:50:30;94979.81;;;22.55;47.83
39739;BME280;25422;48.286;8.484;2023-09-30T12:52:55;94972.91;;;22.36;49.19
39739;BME280;25422;48.286;8.484;2023-09-30T12:55:21;94964.31;;;23.37;45.65
39739;BME280;25422;48.286;8.484;2023-09-30T12:57:47;94971.44;;;22.70;48.57
39739;BME280;25422;48.286;8.484;2023-09-30T13:00:13;94968.44;;;22.11;48.28
39739;BME280;25422;48.286;8.484;2023-09-30T13:02:41;94967.25;;;23.05;47.29
39739;BME280;25422;48.286;8.484;2023-09-30T13:05:07;94969.69;;;22.46;48.48
39739;BME280;25422;48.286;8.484;2023-09-30T13:07:32;94968.56;;;22.16;48.40
39739;BME280;25422;48.286;8.484;2023-09-30T13:09:58;94964.25;;;22.71;47.35
39739;BME280;25422;48.286;8.484;2023-09-30T13:12:26;94955.72;;;22.81;46.44
39739;BME280;25422;48.286;8.484;2023-09-30T13:14:52;94965.03;;;22.22;51.45
39739;BME280;25422;48.286;8.484;2023-09-30T13:17:22;94958.56;;;21.49;52.00